NCAR-RAP Real-Time Weather Data

Output produced by METARs form (27 May 2017  08:20 UTC)
found at http://weather.rap.ucar.edu/surface/
 
Conditions at: KTPA observed 27 May 2017  07:53 UTC
Temperature: 20.6°C (69°F)
Dewpoint: 16.1°C (61°F) [RH = 75%]
Pressure (altimeter): 30.05 inches Hg (1017.7 mb)
[Sea-level pressure: 1017.7 mb]
Winds: calm
Visibility: 10 or more miles (16+ km)
Ceiling: at least 12,000 feet AGL
Clouds: sky clear below 12,000 feet AGL
Present Weather: no significant weather observed at this time
KTPA 270753Z 00000KT 10SM CLR 21/16 A3005 RMK AO2 SLP177 T02060161

Conditions at: KTPA observed 27 May 2017  06:53 UTC
Temperature: 21.1°C (70°F)
Dewpoint: 16.1°C (61°F) [RH = 73%]
Pressure (altimeter): 30.06 inches Hg (1018.0 mb)
[Sea-level pressure: 1017.8 mb]
Winds: calm
Visibility: 10 or more miles (16+ km)
Ceiling: at least 12,000 feet AGL
Clouds: sky clear below 12,000 feet AGL
Present Weather: no significant weather observed at this time
KTPA 270653Z 00000KT 10SM CLR 21/16 A3006 RMK AO2 SLP178 T02110161

Conditions at: KTPA observed 27 May 2017  05:53 UTC
Temperature: 21.1°C (70°F)
Dewpoint: 16.7°C (62°F) [RH = 76%]
Pressure (altimeter): 30.07 inches Hg (1018.4 mb)
[Sea-level pressure: 1018.2 mb]
Winds: from the N (360 degrees) at 3 MPH (3 knots; 1.6 m/s)
Visibility: 10 or more miles (16+ km)
Ceiling: at least 12,000 feet AGL
Clouds: sky clear below 12,000 feet AGL
Present Weather: no significant weather observed at this time
KTPA 270553Z 36003KT 10SM CLR 21/17 A3007 RMK AO2 SLP182 T02110167 10267 20211 58001

Conditions at: KTPA observed 27 May 2017  04:53 UTC
Temperature: 21.7°C (71°F)
Dewpoint: 16.1°C (61°F) [RH = 70%]
Pressure (altimeter): 30.08 inches Hg (1018.7 mb)
[Sea-level pressure: 1018.5 mb]
Winds: from the N (360 degrees) at 3 MPH (3 knots; 1.6 m/s)
Visibility: 10 or more miles (16+ km)
Ceiling: at least 12,000 feet AGL
Clouds: sky clear below 12,000 feet AGL
Present Weather: no significant weather observed at this time
KTPA 270453Z 36003KT 10SM CLR 22/16 A3008 RMK AO2 SLP185 T02170161 403110194

Conditions at: KTPA observed 27 May 2017  03:53 UTC
Temperature: 23.3°C (74°F)
Dewpoint: 15.6°C (60°F) [RH = 62%]
Pressure (altimeter): 30.08 inches Hg (1018.7 mb)
[Sea-level pressure: 1018.4 mb]
Winds: from the WNW (300 degrees) at 5 MPH (4 knots; 2.1 m/s)
Visibility: 10 or more miles (16+ km)
Ceiling: at least 12,000 feet AGL
Clouds: sky clear below 12,000 feet AGL
Present Weather: no significant weather observed at this time
KTPA 270353Z 30004KT 10SM CLR 23/16 A3008 RMK AO2 SLP184 T02330156

Conditions at: KTPA observed 27 May 2017  02:53 UTC
Temperature: 23.9°C (75°F)
Dewpoint: 15.0°C (59°F) [RH = 57%]
Pressure (altimeter): 30.07 inches Hg (1018.4 mb)
[Sea-level pressure: 1018.3 mb]
Winds: calm
Visibility: 10 or more miles (16+ km)
Ceiling: at least 12,000 feet AGL
Clouds: sky clear below 12,000 feet AGL
Present Weather: no significant weather observed at this time
KTPA 270253Z 00000KT 10SM CLR 24/15 A3007 RMK AO2 SLP183 T02390150 51011

Conditions at: KTPA observed 27 May 2017  01:53 UTC
Temperature: 23.9°C (75°F)
Dewpoint: 15.6°C (60°F) [RH = 60%]
Pressure (altimeter): 30.07 inches Hg (1018.4 mb)
[Sea-level pressure: 1018.1 mb]
Winds: from the NW (320 degrees) at 5 MPH (4 knots; 2.1 m/s)
Visibility: 10 or more miles (16+ km)
Ceiling: at least 12,000 feet AGL
Clouds: sky clear below 12,000 feet AGL
Present Weather: no significant weather observed at this time
KTPA 270153Z 32004KT 10SM CLR 24/16 A3007 RMK AO2 SLP181 T02390156

Conditions at: KTPA observed 27 May 2017  00:53 UTC
Temperature: 25.0°C (77°F)
Dewpoint: 15.0°C (59°F) [RH = 54%]
Pressure (altimeter): 30.06 inches Hg (1018.0 mb)
[Sea-level pressure: 1017.7 mb]
Winds: from the WNW (290 degrees) at 7 MPH (6 knots; 3.1 m/s)
Visibility: 10 or more miles (16+ km)
Ceiling: at least 12,000 feet AGL
Clouds: few clouds at 30000 feet AGL
Present Weather: no significant weather observed at this time
KTPA 270053Z 29006KT 10SM FEW300 25/15 A3006 RMK AO2 SLP177 T02500150

Conditions at: KTPA observed 26 May 2017  23:53 UTC
Temperature: 26.7°C (80°F)
Dewpoint: 13.9°C (57°F) [RH = 45%]
Pressure (altimeter): 30.04 inches Hg (1017.4 mb)
[Sea-level pressure: 1017.2 mb]
Winds: from the WNW (290 degrees) at 8 MPH (7 knots; 3.6 m/s)
Visibility: 10 or more miles (16+ km)
Ceiling: at least 12,000 feet AGL
Clouds: few clouds at 5500 feet AGL
Present Weather: no significant weather observed at this time
KTPA 262353Z 29007KT 10SM FEW055 27/14 A3004 RMK AO2 SLP172 T02670139 10311 20267 53002

Conditions at: KTPA observed 26 May 2017  22:53 UTC
Temperature: 27.8°C (82°F)
Dewpoint: 15.0°C (59°F) [RH = 46%]
Pressure (altimeter): 30.04 inches Hg (1017.4 mb)
[Sea-level pressure: 1017.0 mb]
Winds: from the W (270 degrees) at 10 MPH (9 knots; 4.7 m/s)
Visibility: 10 or more miles (16+ km)
Ceiling: at least 12,000 feet AGL
Clouds: sky clear below 12,000 feet AGL
Present Weather: no significant weather observed at this time
KTPA 262253Z 27009KT 10SM CLR 28/15 A3004 RMK AO2 SLP170 T02780150

Conditions at: KTPA observed 26 May 2017  21:53 UTC
Temperature: 28.9°C (84°F)
Dewpoint: 15.0°C (59°F) [RH = 43%]
Pressure (altimeter): 30.03 inches Hg (1017.0 mb)
[Sea-level pressure: 1017.0 mb]
Winds: from the W (270 degrees) at 13 MPH (11 knots; 5.7 m/s)
Visibility: 10 or more miles (16+ km)
Ceiling: at least 12,000 feet AGL
Clouds: few clouds at 5500 feet AGL
Present Weather: no significant weather observed at this time
KTPA 262153Z 27011KT 10SM FEW055 29/15 A3003 RMK AO2 SLP170 T02890150

Conditions at: KTPA observed 26 May 2017  20:53 UTC
Temperature: 28.9°C (84°F)
Dewpoint: 15.0°C (59°F) [RH = 43%]
Pressure (altimeter): 30.04 inches Hg (1017.4 mb)
[Sea-level pressure: 1017.0 mb]
Winds: from the W (260 degrees) at 13 MPH (11 knots; 5.7 m/s)
Visibility: 10 or more miles (16+ km)
Ceiling: at least 12,000 feet AGL
Clouds: few clouds at 5500 feet AGL
Present Weather: no significant weather observed at this time
KTPA 262053Z 26011KT 10SM FEW055 29/15 A3004 RMK AO2 SLP170 T02890150 56008

Conditions at: KTPA observed 26 May 2017  19:53 UTC
Temperature: 30.0°C (86°F)
Dewpoint: 15.6°C (60°F) [RH = 42%]
Pressure (altimeter): 30.04 inches Hg (1017.4 mb)
[Sea-level pressure: 1017.2 mb]
Winds: from the WSW (250 degrees) at 12 MPH (10 knots; 5.2 m/s)
Visibility: 10 or more miles (16+ km)
Ceiling: at least 12,000 feet AGL
Clouds: few clouds at 5500 feet AGL
Present Weather: no significant weather observed at this time
KTPA 261953Z 25010KT 10SM FEW055 30/16 A3004 RMK AO2 SLP172 T03000156

Conditions at: KTPA observed 26 May 2017  18:53 UTC
Temperature: 30.0°C (86°F)
Dewpoint: 15.6°C (60°F) [RH = 42%]
Pressure (altimeter): 30.05 inches Hg (1017.7 mb)
[Sea-level pressure: 1017.6 mb]
Winds: from the W (280 degrees) at 12 MPH (10 knots; 5.2 m/s)
Visibility: 10 or more miles (16+ km)
Ceiling: at least 12,000 feet AGL
Clouds: sky clear below 12,000 feet AGL
Present Weather: no significant weather observed at this time
KTPA 261853Z 28010KT 10SM CLR 30/16 A3005 RMK AO2 SLP176 T03000156

Conditions at: KTPA observed 26 May 2017  17:53 UTC
Temperature: 30.0°C (86°F)
Dewpoint: 14.4°C (58°F) [RH = 39%]
Pressure (altimeter): 30.06 inches Hg (1018.0 mb)
[Sea-level pressure: 1017.8 mb]
Winds: from the WSW (250 degrees) at 8 MPH (7 knots; 3.6 m/s)
Visibility: 10 or more miles (16+ km)
Ceiling: at least 12,000 feet AGL
Clouds: sky clear below 12,000 feet AGL
Present Weather: no significant weather observed at this time
KTPA 261753Z 25007KT 10SM CLR 30/14 A3006 RMK AO2 SLP178 T03000144 10306 20233 58008

Conditions at: KTPA observed 26 May 2017  16:53 UTC
Temperature: 28.3°C (83°F)
Dewpoint: 16.1°C (61°F) [RH = 48%]
Pressure (altimeter): 30.07 inches Hg (1018.4 mb)
[Sea-level pressure: 1018.2 mb]
Winds: from the WSW (240 degrees) at 6 MPH (5 knots; 2.6 m/s)
Visibility: 10 or more miles (16+ km)
Ceiling: at least 12,000 feet AGL
Clouds: sky clear below 12,000 feet AGL
Present Weather: no significant weather observed at this time
KTPA 261653Z 24005KT 10SM CLR 28/16 A3007 RMK AO2 SLP182 T02830161

Conditions at: KTPA observed 26 May 2017  15:53 UTC
Temperature: 27.8°C (82°F)
Dewpoint: 16.1°C (61°F) [RH = 49%]
Pressure (altimeter): 30.08 inches Hg (1018.7 mb)
[Sea-level pressure: 1018.5 mb]
Winds: from the SSW (210 degrees) at 8 MPH (7 knots; 3.6 m/s)
Visibility: 10 or more miles (16+ km)
Ceiling: at least 12,000 feet AGL
Clouds: sky clear below 12,000 feet AGL
Present Weather: no significant weather observed at this time
KTPA 261553Z 21007KT 10SM CLR 28/16 A3008 RMK AO2 SLP185 T02780161

Conditions at: KTPA observed 26 May 2017  14:53 UTC
Temperature: 26.7°C (80°F)
Dewpoint: 16.7°C (62°F) [RH = 54%]
Pressure (altimeter): 30.08 inches Hg (1018.7 mb)
[Sea-level pressure: 1018.6 mb]
Winds: from the SW (230 degrees) at 8 MPH (7 knots; 3.6 m/s)
Visibility: 10 or more miles (16+ km)
Ceiling: at least 12,000 feet AGL
Clouds: sky clear below 12,000 feet AGL
Present Weather: no significant weather observed at this time
KTPA 261453Z 23007KT 10SM CLR 27/17 A3008 RMK AO2 SLP186 T02670167 50010

Conditions at: KTPA observed 26 May 2017  13:53 UTC
Temperature: 26.7°C (80°F)
Dewpoint: 15.6°C (60°F) [RH = 51%]
Pressure (altimeter): 30.09 inches Hg (1019.0 mb)
[Sea-level pressure: 1018.8 mb]
Winds: from the N (360 degrees) at 3 MPH (3 knots; 1.6 m/s)
Visibility: 10 or more miles (16+ km)
Ceiling: at least 12,000 feet AGL
Clouds: few clouds at 25000 feet AGL
Present Weather: no significant weather observed at this time
KTPA 261353Z 36003KT 10SM FEW250 27/16 A3009 RMK AO2 SLP188 T02670156

Conditions at: KTPA observed 26 May 2017  12:53 UTC
Temperature: 25.6°C (78°F)
Dewpoint: 15.6°C (60°F) [RH = 54%]
Pressure (altimeter): 30.08 inches Hg (1018.7 mb)
[Sea-level pressure: 1018.5 mb]
Winds: variable direction winds at 5 MPH (4 knots; 2.1 m/s)
Visibility: 10 or more miles (16+ km)
Ceiling: at least 12,000 feet AGL
Clouds: few clouds at 25000 feet AGL
Present Weather: no significant weather observed at this time
KTPA 261253Z VRB04KT 10SM FEW250 26/16 A3008 RMK AO2 SLP185 T02560156

Conditions at: KTPA observed 26 May 2017  11:53 UTC
Temperature: 23.3°C (74°F)
Dewpoint: 16.1°C (61°F) [RH = 64%]
Pressure (altimeter): 30.05 inches Hg (1017.7 mb)
[Sea-level pressure: 1017.6 mb]
Winds: from the N (350 degrees) at 6 MPH (5 knots; 2.6 m/s)
Visibility: 10 or more miles (16+ km)
Ceiling: at least 12,000 feet AGL
Clouds: few clouds at 25000 feet AGL
Present Weather: no significant weather observed at this time
KTPA 261153Z 35005KT 10SM FEW250 23/16 A3005 RMK AO2 SLP176 T02330161 10233 20194 53016

Conditions at: KTPA observed 26 May 2017  10:53 UTC
Temperature: 21.7°C (71°F)
Dewpoint: 15.6°C (60°F) [RH = 68%]
Pressure (altimeter): 30.03 inches Hg (1017.0 mb)
[Sea-level pressure: 1016.9 mb]
Winds: from the NNW (340 degrees) at 7 MPH (6 knots; 3.1 m/s)
Visibility: 10 or more miles (16+ km)
Ceiling: at least 12,000 feet AGL
Clouds: few clouds at 28000 feet AGL
Present Weather: no significant weather observed at this time
KTPA 261053Z 34006KT 10SM FEW280 22/16 A3003 RMK AO2 SLP169 T02170156

Conditions at: KTPA observed 26 May 2017  09:53 UTC
Temperature: 20.0°C (68°F)
Dewpoint: 16.1°C (61°F) [RH = 78%]
Pressure (altimeter): 30.02 inches Hg (1016.7 mb)
[Sea-level pressure: 1016.6 mb]
Winds: from the N (360 degrees) at 3 MPH (3 knots; 1.6 m/s)
Visibility: 10 or more miles (16+ km)
Ceiling: at least 12,000 feet AGL
Clouds: sky clear below 12,000 feet AGL
Present Weather: no significant weather observed at this time
KTPA 260953Z 36003KT 10SM CLR 20/16 A3002 RMK AO2 SLP166 T02000161

Conditions at: KTPA observed 26 May 2017  08:53 UTC
Temperature: 19.4°C (67°F)
Dewpoint: 16.1°C (61°F) [RH = 81%]
Pressure (altimeter): 30.01 inches Hg (1016.3 mb)
[Sea-level pressure: 1016.0 mb]
Winds: from the N (350 degrees) at 5 MPH (4 knots; 2.1 m/s)
Visibility: 10 or more miles (16+ km)
Ceiling: at least 12,000 feet AGL
Clouds: sky clear below 12,000 feet AGL
Present Weather: no significant weather observed at this time
KTPA 260853Z 35004KT 10SM CLR 19/16 A3001 RMK AO2 SLP160 T01940161 53006